createdAt,value
2019-04-04T00:02:05.148Z,22.4
2019-04-04T00:05:11.205Z,22.3
2019-04-04T00:08:17.248Z,22.4
2019-04-04T00:11:23.191Z,22.3
2019-04-04T00:14:29.233Z,22.2
2019-04-04T00:17:35.293Z,22.2
2019-04-04T00:20:41.305Z,22.2
2019-04-04T00:23:47.300Z,22.2
2019-04-04T00:26:53.295Z,22.2
2019-04-04T00:29:59.382Z,22.3
2019-04-04T00:33:05.391Z,22.3
2019-04-04T00:36:11.391Z,22.3
2019-04-04T00:39:17.484Z,22.3
2019-04-04T00:42:23.348Z,22.3
2019-04-04T00:45:29.523Z,22.3
2019-04-04T00:48:35.552Z,22.3
2019-04-04T00:51:41.486Z,22.3
2019-04-04T00:54:47.532Z,22.3
2019-04-04T00:57:53.487Z,22.3
2019-04-04T01:00:59.433Z,22.3
2019-04-04T01:04:05.495Z,22.3
2019-04-04T01:07:11.436Z,22.3
2019-04-04T01:10:18.927Z,22.3
2019-04-04T01:13:27.512Z,22.3
2019-04-04T01:16:34.108Z,22.3
2019-04-04T01:19:40.255Z,22.3
2019-04-04T01:22:49.451Z,22.3
2019-04-04T01:25:59.219Z,22.3
2019-04-04T01:29:10.869Z,22.3
2019-04-04T01:32:17.620Z,22.3
2019-04-04T01:35:23.650Z,22.4
2019-04-04T01:38:29.848Z,22.4
2019-04-04T01:41:38.602Z,22.4
2019-04-04T01:44:44.609Z,22.4
2019-04-04T01:47:50.686Z,22.4
2019-04-04T01:50:56.597Z,22.4
2019-04-04T01:54:02.537Z,22.4
2019-04-04T01:57:08.798Z,22.4
2019-04-04T02:00:15.724Z,22.4
2019-04-04T02:03:22.634Z,22.4
2019-04-04T02:06:29.310Z,22.4
2019-04-04T02:09:35.308Z,22.4
2019-04-04T02:12:44.050Z,22.4
2019-04-04T02:15:49.985Z,22.4
2019-04-04T02:18:56.013Z,22.4
2019-04-04T02:22:01.932Z,22.4
2019-04-04T02:25:07.877Z,22.4
2019-04-04T02:28:13.836Z,22.4
2019-04-04T02:31:20.879Z,22.4
2019-04-04T02:34:27.608Z,22.5
2019-04-04T02:37:33.527Z,22.5
2019-04-04T02:40:41.871Z,22.5
2019-04-04T02:43:48.209Z,22.5
2019-04-04T02:46:54.198Z,22.5
2019-04-04T02:50:01.010Z,22.5
2019-04-04T02:53:07.761Z,22.5
2019-04-04T02:56:20.180Z,22.5
2019-04-04T02:59:26.130Z,22.5
2019-04-04T03:02:32.073Z,22.5
2019-04-04T03:05:41.932Z,22.6
2019-04-04T03:08:54.292Z,22.7
2019-04-04T03:12:00.248Z,22.7
2019-04-04T03:15:08.845Z,22.8
2019-04-04T03:18:15.769Z,22.8
2019-04-04T03:21:23.296Z,22.9
2019-04-04T03:24:29.628Z,22.9
2019-04-04T03:27:45.180Z,23
2019-04-04T03:30:58.020Z,23
2019-04-04T03:34:12.114Z,23
2019-04-04T03:37:18.867Z,23.1
2019-04-04T03:40:25.853Z,23.1
2019-04-04T03:43:31.939Z,23.2
2019-04-04T03:46:38.930Z,23.2
2019-04-04T03:49:45.112Z,23.3
2019-04-04T03:52:51.218Z,23.3
2019-04-04T03:55:59.910Z,23.3
2019-04-04T03:59:07.042Z,23.3
2019-04-04T04:02:12.949Z,23.4
2019-04-04T04:05:23.677Z,23.4
2019-04-04T04:08:37.437Z,23.5
2019-04-04T04:11:43.558Z,23.5
2019-04-04T04:14:53.687Z,23.5
2019-04-04T04:18:00.715Z,23.5
2019-04-04T04:21:09.561Z,23.5
2019-04-04T04:24:16.738Z,23.6
2019-04-04T04:27:22.691Z,23.6
2019-04-04T04:30:28.659Z,23.6
2019-04-04T04:33:34.721Z,23.7
2019-04-04T04:36:40.630Z,23.7
2019-04-04T04:39:51.127Z,23.7
2019-04-04T04:42:59.611Z,23.7
2019-04-04T04:46:06.526Z,23.7
2019-04-04T04:49:12.662Z,23.8
2019-04-04T04:52:18.780Z,23.8
2019-04-04T04:55:27.091Z,23.8
2019-04-04T04:58:33.647Z,23.8
2019-04-04T05:01:43.484Z,23.9
2019-04-04T05:04:53.769Z,23.9
2019-04-04T05:08:03.730Z,23.9
2019-04-04T05:11:16.772Z,24
2019-04-04T05:14:25.298Z,24
2019-04-04T05:17:34.655Z,24
2019-04-04T05:20:43.726Z,24
2019-04-04T05:23:49.750Z,24.1
2019-04-04T05:26:55.720Z,24.1
2019-04-04T05:30:01.760Z,24.1
2019-04-04T05:33:11.320Z,24.2
2019-04-04T05:36:17.173Z,24.2
2019-04-04T05:39:23.287Z,24.2
2019-04-04T05:42:32.687Z,24.2
2019-04-04T05:45:39.258Z,24.3
2019-04-04T05:48:48.956Z,24.3
2019-04-04T05:51:54.973Z,24.3
2019-04-04T05:55:01.100Z,24.3
2019-04-04T05:58:10.711Z,24.3
2019-04-04T06:01:16.936Z,24.4
2019-04-04T06:04:23.036Z,24.4
2019-04-04T06:07:29.123Z,24.5
2019-04-04T06:10:39.423Z,24.5
2019-04-04T06:13:45.359Z,24.6
2019-04-04T06:16:51.329Z,24.6
2019-04-04T06:19:57.260Z,24.7
2019-04-04T06:23:03.215Z,24.7
2019-04-04T06:26:09.277Z,24.7
2019-04-04T06:29:17.329Z,24.8
2019-04-04T06:32:23.494Z,24.8
2019-04-04T06:35:32.865Z,24.8
2019-04-04T06:38:44.316Z,24.9
2019-04-04T06:41:57.134Z,24.9
2019-04-04T06:45:07.127Z,24.9
2019-04-04T06:48:17.000Z,25
2019-04-04T06:51:22.963Z,25
2019-04-04T06:54:28.941Z,25
2019-04-04T06:57:36.508Z,25.1
2019-04-04T07:00:43.346Z,25.1
2019-04-04T07:03:54.786Z,25.2
2019-04-04T07:07:05.163Z,25.2
2019-04-04T07:10:14.514Z,25.3
2019-04-04T07:13:27.835Z,25.3
2019-04-04T07:16:47.878Z,25.4
2019-04-04T07:19:54.905Z,25.4
2019-04-04T07:23:00.900Z,25.4
2019-04-04T07:26:06.881Z,25.4
2019-04-04T07:29:19.732Z,25.5
2019-04-04T07:32:29.728Z,25.5
2019-04-04T07:35:37.628Z,25.5
2019-04-04T07:38:43.649Z,25.5
2019-04-04T07:41:49.571Z,25.5
2019-04-04T07:44:55.676Z,25.6
2019-04-04T07:48:04.545Z,25.6
2019-04-04T07:51:13.494Z,25.6
2019-04-04T07:54:19.489Z,25.7
2019-04-04T07:57:25.467Z,25.6
2019-04-04T08:00:34.226Z,25.6
2019-04-04T08:03:40.261Z,25.7
2019-04-04T08:06:46.340Z,25.6
2019-04-04T08:09:52.243Z,25.7
2019-04-04T08:12:58.342Z,25.7
2019-04-04T08:16:04.346Z,25.7
2019-04-04T08:19:10.489Z,25.7
2019-04-04T08:22:19.421Z,25.7
2019-04-04T08:25:26.176Z,25.7
2019-04-04T08:28:32.220Z,25.7
2019-04-04T08:31:38.139Z,25.7
2019-04-04T08:34:44.105Z,25.7
2019-04-04T08:41:13.651Z,25.7
2019-04-04T08:44:19.653Z,25.7
2019-04-04T08:47:25.737Z,25.7
2019-04-04T08:50:31.755Z,25.7
2019-04-04T08:53:40.004Z,25.7
2019-04-04T08:56:46.308Z,25.8
2019-04-04T08:59:52.475Z,25.8
2019-04-04T09:02:58.520Z,25.7
2019-04-04T09:06:04.400Z,25.7
2019-04-04T09:09:10.347Z,25.7
2019-04-04T09:12:16.234Z,25.7
2019-04-04T09:15:22.227Z,25.7
2019-04-04T09:18:29.082Z,25.8
2019-04-04T09:21:35.013Z,25.7
2019-04-04T09:24:44.009Z,25.7
2019-04-04T09:27:49.899Z,25.7
2019-04-04T09:30:55.888Z,25.7
2019-04-04T09:34:01.809Z,25.8
2019-04-04T09:37:10.622Z,25.7
2019-04-04T09:40:17.645Z,25.7
2019-04-04T09:43:23.603Z,25.7
2019-04-04T09:46:29.611Z,25.7
2019-04-04T09:49:42.741Z,25.7
2019-04-04T09:52:48.720Z,25.7
2019-04-04T09:55:54.798Z,25.6
2019-04-04T09:59:01.148Z,25.7
2019-04-04T10:02:07.138Z,25.7
2019-04-04T10:05:13.186Z,25.6
2019-04-04T10:08:19.644Z,25.6
2019-04-04T10:11:26.001Z,25.6
2019-04-04T10:14:31.992Z,25.6
2019-04-04T10:17:37.916Z,25.6
2019-04-04T10:20:43.865Z,25.6
2019-04-04T10:23:49.919Z,25.6
2019-04-04T10:26:55.844Z,25.6
2019-04-04T10:30:05.224Z,25.6
2019-04-04T10:33:11.278Z,25.6
2019-04-04T10:36:17.194Z,25.6
2019-04-04T10:39:28.930Z,25.6
2019-04-04T10:42:38.320Z,25.6
2019-04-04T10:45:44.281Z,25.6
2019-04-04T10:48:50.343Z,25.5
2019-04-04T10:51:57.217Z,25.6
2019-04-04T10:55:03.387Z,25.6
2019-04-04T10:58:09.316Z,25.6
2019-04-04T11:01:15.360Z,25.5
2019-04-04T11:04:21.342Z,25.5
2019-04-04T11:07:27.397Z,25.5
2019-04-04T11:10:33.315Z,25.6
2019-04-04T11:13:39.234Z,25.6
2019-04-04T11:16:45.278Z,25.5
2019-04-04T11:19:51.187Z,25.6
2019-04-04T11:22:57.280Z,25.5
2019-04-04T11:26:04.221Z,25.5
2019-04-04T11:29:10.357Z,25.5
2019-04-04T11:32:16.302Z,25.5
2019-04-04T11:35:22.280Z,25.6
2019-04-04T11:38:28.229Z,25.5
2019-04-04T11:41:34.174Z,25.5
2019-04-04T11:44:40.158Z,25.5
2019-04-04T11:47:48.867Z,25.5
2019-04-04T11:50:54.781Z,25.5
2019-04-04T11:54:00.702Z,25.5
2019-04-04T11:57:06.706Z,25.6
2019-04-04T12:00:12.643Z,25.5
2019-04-04T12:03:18.587Z,25.5
2019-04-04T12:06:24.605Z,25.5
2019-04-04T12:09:30.615Z,25.5
2019-04-04T12:12:36.506Z,25.5
2019-04-04T12:15:42.516Z,25.5
2019-04-04T12:18:48.532Z,25.5
2019-04-04T12:21:54.692Z,25.5
2019-04-04T12:25:00.756Z,25.5
2019-04-04T12:28:06.764Z,25.5
2019-04-04T12:31:12.846Z,25.5
2019-04-04T12:34:18.810Z,25.5
2019-04-04T12:37:24.800Z,25.5
2019-04-04T12:40:30.764Z,25.5
2019-04-04T12:43:36.687Z,25.5
2019-04-04T12:46:42.704Z,25.5
2019-04-04T12:49:48.938Z,25.5
2019-04-04T12:52:56.148Z,25.5
2019-04-04T12:56:02.501Z,25.4
2019-04-04T12:59:08.546Z,25.5
2019-04-04T13:02:14.626Z,25.5
2019-04-04T13:05:20.848Z,25.4
2019-04-04T13:08:26.921Z,25.4
2019-04-04T13:11:35.925Z,25.5
2019-04-04T13:14:41.899Z,25.4
2019-04-04T13:17:47.829Z,25.4
2019-04-04T13:20:53.771Z,25.4
2019-04-04T13:23:59.762Z,25.4
2019-04-04T13:27:05.823Z,25.5
2019-04-04T13:30:11.822Z,25.4
2019-04-04T13:33:17.805Z,25.5
2019-04-04T13:36:27.275Z,25.5
2019-04-04T13:39:33.316Z,25.4
2019-04-04T13:42:40.410Z,25.5
2019-04-04T13:45:46.639Z,25.4
2019-04-04T13:48:52.705Z,25.4
2019-04-04T13:51:58.748Z,25.5
2019-04-04T13:55:05.366Z,25.5
2019-04-04T13:58:12.415Z,25.5
2019-04-04T14:01:25.610Z,25.5
2019-04-04T14:04:32.799Z,25.5
2019-04-04T14:07:39.425Z,25.5
2019-04-04T14:10:57.808Z,25.5
2019-04-04T14:14:04.153Z,25.5
2019-04-04T14:17:10.163Z,25.5
2019-04-04T14:20:16.495Z,25.5
2019-04-04T14:23:22.533Z,25.4
2019-04-04T14:26:29.267Z,25.5
2019-04-04T14:29:37.756Z,25.5
2019-04-04T14:32:44.062Z,25.5
2019-04-04T14:35:50.451Z,25.5
2019-04-04T14:38:56.519Z,25.5
2019-04-04T14:42:03.485Z,25.5
2019-04-04T14:45:09.427Z,25.5
2019-04-04T14:48:15.452Z,25.4
2019-04-04T14:51:21.373Z,25.5
2019-04-04T14:54:29.184Z,25.5
2019-04-04T14:57:35.972Z,25.5
2019-04-04T15:00:41.979Z,25.5
2019-04-04T15:03:48.073Z,25.5
2019-04-04T15:06:54.077Z,25.5
2019-04-04T15:10:00.141Z,25.5
2019-04-04T15:13:06.126Z,25.5
2019-04-04T15:16:12.109Z,25.5
2019-04-04T15:19:18.158Z,25.4
2019-04-04T15:22:24.018Z,25.5
2019-04-04T15:25:33.184Z,25.4
2019-04-04T15:28:39.159Z,25.5
2019-04-04T15:31:45.106Z,25.5
2019-04-04T15:34:51.140Z,25.5
2019-04-04T15:37:57.032Z,25.5
2019-04-04T15:41:05.862Z,25.5
2019-04-04T15:44:11.782Z,25.5
2019-04-04T15:47:17.906Z,25.4
2019-04-04T15:50:23.850Z,25.4
2019-04-04T15:53:29.811Z,25.4
2019-04-04T15:56:35.719Z,25.4
2019-04-04T15:59:41.735Z,25.4
2019-04-04T16:02:47.786Z,25.4
2019-04-04T16:05:53.811Z,25.4
2019-04-04T16:08:59.778Z,25.4
2019-04-04T16:12:05.774Z,25.4
2019-04-04T16:15:11.704Z,25.3
2019-04-04T16:18:17.630Z,25.3
2019-04-04T16:21:23.593Z,25.3
2019-04-04T16:24:29.557Z,25.3
2019-04-04T16:27:35.486Z,25.2
2019-04-04T16:30:41.529Z,25.3
2019-04-04T16:33:47.443Z,25.3
2019-04-04T16:36:53.434Z,25.3
2019-04-04T16:40:08.512Z,25.2
2019-04-04T16:43:15.556Z,25.2
2019-04-04T16:46:21.416Z,25.2
2019-04-04T16:49:27.343Z,25.2
2019-04-04T16:52:33.314Z,25.2
2019-04-04T16:55:39.390Z,25.2
2019-04-04T16:58:45.374Z,25.1
2019-04-04T17:01:51.319Z,25.1
2019-04-04T17:04:57.295Z,25.1
2019-04-04T17:08:03.315Z,25.1
2019-04-04T17:11:09.199Z,25.1
2019-04-04T17:14:15.174Z,25.1
2019-04-04T17:17:21.200Z,25.1
2019-04-04T17:20:30.033Z,25.1
2019-04-04T17:23:36.053Z,25.1
2019-04-04T17:26:42.059Z,25.1
2019-04-04T17:29:47.974Z,25.1
2019-04-04T17:32:55.710Z,25.1
2019-04-04T17:36:05.004Z,25
2019-04-04T17:39:12.546Z,25
2019-04-04T17:42:28.912Z,25
2019-04-04T17:45:40.321Z,24.9
2019-04-04T17:48:47.699Z,24.8
2019-04-04T17:51:55.275Z,24.8
2019-04-04T17:55:02.652Z,24.8
2019-04-04T17:58:08.591Z,24.7
2019-04-04T18:01:17.679Z,24.7
2019-04-04T18:04:23.661Z,24.6
2019-04-04T18:07:29.600Z,24.6
2019-04-04T18:10:35.534Z,24.5
2019-04-04T18:13:41.510Z,24.5
2019-04-04T18:16:47.525Z,24.4
2019-04-04T18:19:53.393Z,24.4
2019-04-04T18:22:59.406Z,24.3
2019-04-04T18:26:05.412Z,24.3
2019-04-04T18:29:11.300Z,24.3
2019-04-04T18:32:17.317Z,24.2
2019-04-04T18:35:23.291Z,24.1
2019-04-04T18:38:31.361Z,24.1
2019-04-04T18:41:38.859Z,24
2019-04-04T18:44:44.832Z,24
2019-04-04T18:47:50.768Z,23.9
2019-04-04T18:50:59.745Z,23.9
2019-04-04T18:54:05.655Z,23.9
2019-04-04T18:57:13.143Z,23.8
2019-04-04T19:00:22.184Z,23.8
2019-04-04T19:03:29.687Z,23.8
2019-04-04T19:06:35.779Z,23.7
2019-04-04T19:09:41.771Z,23.7
2019-04-04T19:12:47.723Z,23.6
2019-04-04T19:16:07.196Z,23.6
2019-04-04T19:19:13.133Z,23.6
2019-04-04T19:22:19.061Z,23.6
2019-04-04T19:25:25.107Z,23.5
2019-04-04T19:28:31.084Z,23.5
2019-04-04T19:31:37.133Z,23.5
2019-04-04T19:34:43.761Z,23.4
2019-04-04T19:37:59.379Z,23.4
2019-04-04T19:41:06.107Z,23.4
2019-04-04T19:44:12.023Z,23.4
2019-04-04T19:47:18.111Z,23.3
2019-04-04T19:50:24.085Z,23.3
2019-04-04T19:53:30.041Z,23.3
2019-04-04T19:56:35.986Z,23.3
2019-04-04T19:59:41.945Z,23.2
2019-04-04T20:02:47.912Z,23.2
2019-04-04T20:05:53.877Z,23.2
2019-04-04T20:08:59.839Z,23.1
2019-04-04T20:12:05.758Z,23.1
2019-04-04T20:15:11.847Z,23.1
2019-04-04T20:18:17.771Z,23.1
2019-04-04T20:21:23.773Z,23.1
2019-04-04T20:24:29.739Z,23
2019-04-04T20:27:35.639Z,23
2019-04-04T20:30:54.681Z,23
2019-04-04T20:34:02.401Z,23
2019-04-04T20:37:11.631Z,23
2019-04-04T20:40:17.547Z,22.9
2019-04-04T20:43:26.693Z,22.9
2019-04-04T20:46:45.650Z,22.9
2019-04-04T20:49:51.564Z,22.9
2019-04-04T20:52:57.494Z,22.9
2019-04-04T20:56:03.457Z,22.9
2019-04-04T20:59:09.522Z,22.8
2019-04-04T21:02:18.467Z,22.8
2019-04-04T21:05:24.391Z,22.8
2019-04-04T21:08:30.291Z,22.8
2019-04-04T21:11:36.304Z,22.8
2019-04-04T21:14:42.258Z,22.7
2019-04-04T21:17:48.335Z,22.7
2019-04-04T21:20:54.503Z,22.7
2019-04-04T21:24:00.472Z,22.7
2019-04-04T21:27:06.405Z,22.7
2019-04-04T21:30:12.430Z,22.6
2019-04-04T21:33:18.570Z,22.6
2019-04-04T21:36:24.499Z,22.6
2019-04-04T21:39:30.453Z,22.6
2019-04-04T21:42:36.446Z,22.6
2019-04-04T21:45:42.317Z,22.6
2019-04-04T21:48:48.248Z,22.5
2019-04-04T21:51:54.321Z,22.5
2019-04-04T21:55:00.263Z,22.5
2019-04-04T21:58:06.236Z,22.5
2019-04-04T22:01:12.113Z,22.5
2019-04-04T22:04:18.048Z,22.4
2019-04-04T22:07:24.001Z,22.4
2019-04-04T22:10:30.040Z,22.4
2019-04-04T22:13:36.099Z,22.4
2019-04-04T22:16:42.072Z,22.4
2019-04-04T22:19:48.087Z,22.4
2019-04-04T22:22:54.012Z,22.4
2019-04-04T22:25:59.995Z,22.4
2019-04-04T22:29:06.008Z,22.3
2019-04-04T22:32:11.991Z,22.4
2019-04-04T22:35:17.935Z,22.4
2019-04-04T22:38:23.990Z,22.4
2019-04-04T22:41:32.710Z,22.3
2019-04-04T22:44:38.946Z,22.4
2019-04-04T22:47:44.899Z,22.3
2019-04-04T22:50:50.832Z,22.3
2019-04-04T22:53:59.554Z,22.3
2019-04-04T22:57:05.440Z,22.3
2019-04-04T23:00:11.358Z,22.3
2019-04-04T23:03:17.375Z,22.3
2019-04-04T23:06:23.367Z,22.3
2019-04-04T23:09:29.458Z,22.3
2019-04-04T23:12:35.350Z,22.3
2019-04-04T23:15:41.337Z,22.3
2019-04-04T23:18:47.400Z,22.3
2019-04-04T23:21:53.462Z,22.3
2019-04-04T23:24:59.514Z,22.3
2019-04-04T23:28:05.594Z,22.3
2019-04-04T23:31:11.506Z,22.3
2019-04-04T23:34:17.556Z,22.3
2019-04-04T23:37:23.516Z,22.3
2019-04-04T23:40:29.445Z,22.3
2019-04-04T23:43:35.346Z,22.3
2019-04-04T23:46:41.271Z,22.3
2019-04-04T23:49:47.261Z,22.3
2019-04-04T23:52:53.236Z,22.2
2019-04-04T23:55:59.315Z,22.3
2019-04-04T23:59:05.303Z,22.2
